createdAt,value
2022-08-22T00:02:00.346Z,99.90
2022-08-22T00:02:47.469Z,63.40
2022-08-22T00:02:56.461Z,69.00
2022-08-22T00:03:06.939Z,99.90
2022-08-22T00:04:57.623Z,99.90
2022-08-22T00:07:37.232Z,99.90
2022-08-22T00:10:10.231Z,99.90
2022-08-22T00:12:43.866Z,99.90
2022-08-22T00:15:42.151Z,99.90
2022-08-22T00:18:15.542Z,99.90
2022-08-22T00:20:45.091Z,99.90
2022-08-22T00:23:21.147Z,99.90
2022-08-22T00:29:06.565Z,99.90
2022-08-22T00:32:06.631Z,99.90
2022-08-22T00:34:46.499Z,99.90
2022-08-22T00:37:37.554Z,99.90
2022-08-22T00:40:26.547Z,99.90
2022-08-22T00:43:16.324Z,99.90
2022-08-22T00:46:01.883Z,99.90
2022-08-22T00:49:22.074Z,99.90
2022-08-22T00:52:04.198Z,99.90
2022-08-22T00:55:02.486Z,99.90
2022-08-22T00:57:47.019Z,99.90
2022-08-22T01:00:29.905Z,99.90
2022-08-22T01:07:41.839Z,99.90
2022-08-22T01:10:13.944Z,99.90
2022-08-22T01:13:34.692Z,99.90
2022-08-22T01:16:24.401Z,99.90
2022-08-22T01:19:39.041Z,99.90
2022-08-22T01:22:54.425Z,99.90
2022-08-22T01:26:03.436Z,99.90
2022-08-22T01:28:58.418Z,99.90
2022-08-22T01:32:03.851Z,99.90
2022-08-22T01:34:53.429Z,99.90
2022-08-22T01:37:45.936Z,99.90
2022-08-22T01:40:24.824Z,99.90
2022-08-22T01:43:08.441Z,99.90
2022-08-22T01:45:52.688Z,99.90
2022-08-22T01:48:29.462Z,99.90
2022-08-22T01:51:30.560Z,99.90
2022-08-22T01:54:09.619Z,99.90
2022-08-22T01:56:42.920Z,99.90
2022-08-22T01:59:32.252Z,99.90
2022-08-22T02:02:40.287Z,99.90
2022-08-22T02:05:28.091Z,99.90
2022-08-22T02:08:26.494Z,99.90
2022-08-22T02:11:03.023Z,99.90
2022-08-22T02:14:00.615Z,99.90
2022-08-22T02:16:49.665Z,99.90
2022-08-22T02:19:26.491Z,99.90
2022-08-22T02:22:21.462Z,99.90
2022-08-22T02:24:59.741Z,99.90
2022-08-22T02:27:56.769Z,99.90
2022-08-22T02:30:48.528Z,99.90
2022-08-22T02:33:36.446Z,99.90
2022-08-22T02:36:17.159Z,99.90
2022-08-22T02:39:05.048Z,99.90
2022-08-22T02:41:47.863Z,99.90
2022-08-22T02:44:25.810Z,99.90
2022-08-22T02:47:12.556Z,99.90
2022-08-22T02:49:51.805Z,99.90
2022-08-22T02:52:27.278Z,99.90
2022-08-22T02:55:05.849Z,99.90
2022-08-22T02:57:51.856Z,99.90
2022-08-22T03:00:31.868Z,99.90
2022-08-22T03:03:28.150Z,99.90
2022-08-22T03:06:27.719Z,99.90
2022-08-22T03:09:20.237Z,99.90
2022-08-22T03:12:00.956Z,99.90
2022-08-22T03:14:54.407Z,99.90
2022-08-22T03:17:51.404Z,99.90
2022-08-22T03:20:43.686Z,99.90
2022-08-22T03:23:27.346Z,99.90
2022-08-22T03:26:23.638Z,99.90
2022-08-22T03:29:19.702Z,99.90
2022-08-22T03:32:17.634Z,99.90
2022-08-22T03:34:57.343Z,99.90
2022-08-22T03:37:36.931Z,99.90
2022-08-22T03:40:22.598Z,99.90
2022-08-22T03:43:23.083Z,99.90
2022-08-22T03:46:34.334Z,99.90
2022-08-22T03:49:19.278Z,99.90
2022-08-22T03:52:20.397Z,99.90
2022-08-22T03:54:55.714Z,99.90
2022-08-22T03:57:44.581Z,99.90
2022-08-22T04:00:52.694Z,99.90
2022-08-22T04:03:57.152Z,99.90
2022-08-22T04:07:02.537Z,99.90
2022-08-22T04:10:03.409Z,99.90
2022-08-22T04:12:49.122Z,99.90
2022-08-22T04:15:39.650Z,99.90
2022-08-22T04:18:18.713Z,99.90
2022-08-22T04:21:13.204Z,99.90
2022-08-22T04:23:59.730Z,99.90
2022-08-22T04:26:52.471Z,99.90
2022-08-22T04:29:32.396Z,99.90
2022-08-22T04:32:18.390Z,99.90
2022-08-22T04:34:50.039Z,99.90
2022-08-22T04:37:19.657Z,99.90
2022-08-22T04:40:03.798Z,99.90
2022-08-22T04:42:44.968Z,99.90
2022-08-22T04:45:23.730Z,99.90
2022-08-22T04:47:56.791Z,99.90
2022-08-22T04:50:34.189Z,99.90
2022-08-22T04:53:14.275Z,99.90
2022-08-22T04:56:02.034Z,99.90
2022-08-22T04:59:08.492Z,99.90
2022-08-22T05:01:53.678Z,99.90
2022-08-22T05:04:31.497Z,99.90
2022-08-22T05:07:16.431Z,99.90
2022-08-22T05:09:55.670Z,99.90
2022-08-22T05:12:53.797Z,99.90
2022-08-22T05:15:32.810Z,99.90
2022-08-22T05:18:10.620Z,99.90
2022-08-22T05:20:56.257Z,99.90
2022-08-22T05:23:24.827Z,99.90
2022-08-22T05:25:55.742Z,99.90
2022-08-22T05:28:36.572Z,99.90
2022-08-22T05:31:12.455Z,99.90
2022-08-22T05:33:45.203Z,99.90
2022-08-22T05:36:45.946Z,99.90
2022-08-22T05:39:22.216Z,99.90
2022-08-22T05:42:03.567Z,99.90
2022-08-22T05:47:44.281Z,99.90
2022-08-22T05:50:23.035Z,99.90
2022-08-22T05:58:51.832Z,99.90
2022-08-22T06:01:47.897Z,99.90
2022-08-22T06:04:49.409Z,99.90
2022-08-22T06:07:27.878Z,99.90
2022-08-22T06:10:23.994Z,99.90
2022-08-22T06:13:01.553Z,99.90
2022-08-22T06:15:47.257Z,99.90
2022-08-22T06:18:20.950Z,99.90
2022-08-22T06:20:51.733Z,99.90
2022-08-22T06:23:34.343Z,99.90
2022-08-22T06:26:04.812Z,99.90
2022-08-22T06:28:55.222Z,99.90
2022-08-22T06:31:28.720Z,99.90
2022-08-22T06:34:20.906Z,99.90
2022-08-22T06:36:56.489Z,99.90
2022-08-22T06:39:27.025Z,99.90
2022-08-22T06:42:32.147Z,99.90
2022-08-22T06:45:22.912Z,99.90
2022-08-22T06:48:00.970Z,99.90
2022-08-22T06:50:33.727Z,99.90
2022-08-22T06:53:20.236Z,99.90
2022-08-22T06:56:01.933Z,99.90
2022-08-22T06:58:36.265Z,99.90
2022-08-22T07:01:12.781Z,99.90
2022-08-22T07:04:08.384Z,99.90
2022-08-22T07:06:46.595Z,99.90
2022-08-22T07:09:19.690Z,99.90
2022-08-22T07:11:59.946Z,99.90
2022-08-22T07:14:41.139Z,99.90
2022-08-22T07:17:20.933Z,99.90
2022-08-22T07:20:15.995Z,99.90
2022-08-22T07:22:54.258Z,99.90
2022-08-22T07:25:23.574Z,99.90
2022-08-22T07:28:37.158Z,99.90
2022-08-22T07:31:30.491Z,99.90
2022-08-22T07:34:37.312Z,99.90
2022-08-22T07:37:16.474Z,99.90
2022-08-22T07:40:15.215Z,99.90
2022-08-22T07:42:51.277Z,99.90
2022-08-22T07:45:45.949Z,99.90
2022-08-22T07:48:34.016Z,99.90
2022-08-22T07:51:13.028Z,99.90
2022-08-22T07:53:48.550Z,99.90
2022-08-22T07:56:26.397Z,99.90
2022-08-22T07:59:10.000Z,99.90
2022-08-22T08:01:52.321Z,99.90
2022-08-22T08:04:29.105Z,99.60
2022-08-22T08:07:00.587Z,99.50
2022-08-22T08:09:35.966Z,99.60
2022-08-22T08:12:10.746Z,98.20
2022-08-22T08:14:44.210Z,98.50
2022-08-22T08:17:26.887Z,98.30
2022-08-22T08:20:11.358Z,98.00
2022-08-22T08:22:42.695Z,97.10
2022-08-22T08:25:17.092Z,97.30
2022-08-22T08:28:03.114Z,96.00
2022-08-22T08:30:44.664Z,95.30
2022-08-22T08:33:25.547Z,95.20
2022-08-22T08:36:03.896Z,94.40
2022-08-22T08:38:59.497Z,94.20
2022-08-22T08:41:49.759Z,93.20
2022-08-22T08:44:37.580Z,92.40
2022-08-22T08:47:28.769Z,92.00
2022-08-22T08:50:21.416Z,91.90
2022-08-22T08:53:35.501Z,91.20
2022-08-22T08:56:42.774Z,90.50
2022-08-22T08:59:44.431Z,90.00
2022-08-22T09:02:35.181Z,89.20
2022-08-22T09:05:12.020Z,87.60
2022-08-22T09:16:51.279Z,84.00
2022-08-22T09:19:49.352Z,82.40
2022-08-22T09:22:57.231Z,79.60
2022-08-22T09:25:38.526Z,79.10
2022-08-22T09:28:19.228Z,77.80
2022-08-22T09:31:48.403Z,76.30
2022-08-22T09:34:25.496Z,75.90
2022-08-22T09:36:55.270Z,73.90
2022-08-22T09:40:04.478Z,72.40
2022-08-22T09:42:50.339Z,70.50
2022-08-22T09:45:52.016Z,69.80
2022-08-22T09:48:44.736Z,68.30
2022-08-22T09:51:33.169Z,69.40
2022-08-22T09:54:08.456Z,68.70
2022-08-22T09:56:58.442Z,66.70
2022-08-22T09:59:50.019Z,65.90
2022-08-22T10:02:31.454Z,65.40
2022-08-22T10:05:40.571Z,64.70
2022-08-22T10:08:38.518Z,63.00
2022-08-22T10:11:21.145Z,61.20
2022-08-22T10:13:57.652Z,61.80
2022-08-22T10:17:05.619Z,64.20
2022-08-22T10:19:51.865Z,63.20
2022-08-22T10:23:29.751Z,62.00
2022-08-22T10:26:22.792Z,62.00
2022-08-22T10:29:00.991Z,59.20
2022-08-22T10:31:27.874Z,58.60
2022-08-22T10:34:12.911Z,59.10
2022-08-22T10:36:48.296Z,56.90
2022-08-22T10:39:29.946Z,56.50
2022-08-22T10:42:24.974Z,54.30
2022-08-22T10:45:09.776Z,52.90
2022-08-22T10:47:58.335Z,51.60
2022-08-22T10:50:43.041Z,51.20
2022-08-22T10:53:35.466Z,50.20
2022-08-22T10:56:08.192Z,50.00
2022-08-22T10:58:49.952Z,50.30
2022-08-22T11:01:38.446Z,49.30
2022-08-22T11:04:32.390Z,49.20
2022-08-22T11:07:39.403Z,49.60
2022-08-22T11:10:27.090Z,49.50
2022-08-22T11:13:27.408Z,48.30
2022-08-22T11:16:29.642Z,46.60
2022-08-22T11:19:02.714Z,48.20
2022-08-22T11:21:48.640Z,48.40
2022-08-22T11:24:35.326Z,48.90
2022-08-22T11:27:39.552Z,47.60
2022-08-22T11:30:18.682Z,46.00
2022-08-22T11:33:47.022Z,46.70
2022-08-22T11:36:36.990Z,45.30
2022-08-22T11:39:21.862Z,45.20
2022-08-22T11:42:22.205Z,44.20
2022-08-22T11:45:03.373Z,43.60
2022-08-22T11:47:49.482Z,42.60
2022-08-22T11:50:19.420Z,42.20
2022-08-22T11:52:52.529Z,43.00
2022-08-22T11:55:47.556Z,42.00
2022-08-22T11:58:29.114Z,41.70
2022-08-22T12:01:11.810Z,40.60
2022-08-22T12:04:19.478Z,39.80
2022-08-22T12:07:00.948Z,39.20
2022-08-22T12:09:31.413Z,39.30
2022-08-22T12:12:28.321Z,38.70
2022-08-22T12:15:37.056Z,38.20
2022-08-22T12:21:58.632Z,39.50
2022-08-22T12:25:02.589Z,39.00
2022-08-22T12:27:47.963Z,38.80
2022-08-22T12:30:32.887Z,38.10
2022-08-22T12:33:28.237Z,38.10
2022-08-22T12:36:18.099Z,38.90
2022-08-22T12:39:28.711Z,39.70
2022-08-22T12:42:27.700Z,38.60
2022-08-22T12:45:32.994Z,38.00
2022-08-22T12:48:30.612Z,37.80
2022-08-22T12:54:47.994Z,38.30
2022-08-22T12:57:38.133Z,37.50
2022-08-22T13:00:23.127Z,37.10
2022-08-22T13:02:57.082Z,37.80
2022-08-22T13:05:40.844Z,38.10
2022-08-22T13:08:15.963Z,38.50
2022-08-22T13:10:57.524Z,36.70
2022-08-22T13:13:31.764Z,37.90
2022-08-22T13:16:48.982Z,37.80
2022-08-22T13:19:53.541Z,38.40
2022-08-22T13:22:28.994Z,37.90
2022-08-22T13:25:19.144Z,36.20
2022-08-22T13:27:59.179Z,37.00
2022-08-22T13:30:34.199Z,36.90
2022-08-22T13:33:32.352Z,37.10
2022-08-22T13:36:18.167Z,36.70
2022-08-22T13:39:15.754Z,36.70
2022-08-22T13:42:02.970Z,36.40
2022-08-22T13:45:14.004Z,35.00
2022-08-22T13:47:50.203Z,34.90
2022-08-22T13:50:21.963Z,35.30
2022-08-22T13:52:52.527Z,35.10
2022-08-22T13:55:45.360Z,35.50
2022-08-22T13:58:33.902Z,35.70
2022-08-22T14:01:25.391Z,35.60
2022-08-22T14:04:35.862Z,35.10
2022-08-22T14:07:05.385Z,34.80
2022-08-22T14:09:41.028Z,36.00
2022-08-22T14:12:22.651Z,37.70
2022-08-22T14:14:57.614Z,36.90
2022-08-22T14:17:48.363Z,36.90
2022-08-22T14:20:32.255Z,36.00
2022-08-22T14:23:08.202Z,35.30
2022-08-22T14:25:38.924Z,35.40
2022-08-22T14:28:28.035Z,33.90
2022-08-22T14:31:13.940Z,34.30
2022-08-22T14:33:47.709Z,34.70
2022-08-22T14:36:22.511Z,35.30
2022-08-22T14:39:06.840Z,37.20
2022-08-22T14:44:52.871Z,37.10
2022-08-22T14:47:43.325Z,36.80
2022-08-22T14:50:39.839Z,36.50
2022-08-22T15:16:34.791Z,37.30
2022-08-22T15:19:36.258Z,38.60
2022-08-22T15:22:25.952Z,38.30
2022-08-22T15:25:24.104Z,37.30
2022-08-22T15:27:55.795Z,37.10
2022-08-22T15:30:44.595Z,37.10
2022-08-22T15:33:45.421Z,36.50
2022-08-22T15:36:21.576Z,38.10
2022-08-22T15:38:54.642Z,37.70
2022-08-22T15:41:36.499Z,38.40
2022-08-22T15:44:06.893Z,37.70
2022-08-22T15:46:59.612Z,37.90
2022-08-22T15:49:35.219Z,38.30
2022-08-22T15:52:13.948Z,37.90
2022-08-22T15:54:53.436Z,37.90
2022-08-22T15:57:40.299Z,38.40
2022-08-22T16:00:43.393Z,38.60
2022-08-22T16:09:58.427Z,39.40
2022-08-22T16:12:35.865Z,39.50
2022-08-22T16:15:08.633Z,39.90
2022-08-22T16:17:43.977Z,39.80
2022-08-22T16:20:45.534Z,40.00
2022-08-22T16:26:43.913Z,41.00
2022-08-22T16:30:02.088Z,40.00
2022-08-22T16:32:41.892Z,41.10
2022-08-22T16:35:11.773Z,40.80
2022-08-22T16:40:47.872Z,41.50
2022-08-22T16:43:17.581Z,41.60
2022-08-22T16:45:45.644Z,42.30
2022-08-22T16:48:36.646Z,41.60
2022-08-22T16:51:17.757Z,41.60
2022-08-22T16:54:28.634Z,41.50
2022-08-22T16:57:26.925Z,41.70
2022-08-22T17:00:04.501Z,41.60
2022-08-22T17:02:52.792Z,42.00
2022-08-22T17:05:36.876Z,42.10
2022-08-22T17:08:25.010Z,43.10
2022-08-22T17:11:26.245Z,42.80
2022-08-22T17:14:28.198Z,42.60
2022-08-22T17:17:26.658Z,42.70
2022-08-22T17:23:21.290Z,42.60
2022-08-22T17:26:13.373Z,42.50
2022-08-22T17:41:26.476Z,44.50
2022-08-22T17:46:57.443Z,45.40
2022-08-22T17:49:33.072Z,45.70
2022-08-22T17:52:30.564Z,46.00
2022-08-22T17:55:04.864Z,47.80
2022-08-22T17:57:43.546Z,49.00
2022-08-22T18:00:50.156Z,49.80
2022-08-22T18:06:29.916Z,50.50
2022-08-22T18:09:19.576Z,51.10
2022-08-22T18:14:56.462Z,51.80
2022-08-22T18:17:49.343Z,51.90
2022-08-22T18:20:50.919Z,52.10
2022-08-22T18:23:35.695Z,53.00
2022-08-22T18:26:23.939Z,53.00
2022-08-22T18:29:06.331Z,53.50
2022-08-22T18:31:48.582Z,53.80
2022-08-22T18:34:42.222Z,54.90
2022-08-22T18:37:41.147Z,55.70
2022-08-22T18:40:14.259Z,56.20
2022-08-22T18:42:53.384Z,57.00
2022-08-22T18:46:03.250Z,57.60
2022-08-22T18:48:33.530Z,58.60
2022-08-22T18:51:19.366Z,59.20
2022-08-22T18:54:10.398Z,60.10
2022-08-22T18:56:57.428Z,60.40
2022-08-22T18:59:42.261Z,60.80
2022-08-22T19:02:51.010Z,61.20
2022-08-22T19:06:12.032Z,61.70
2022-08-22T19:09:02.369Z,61.70
2022-08-22T19:11:45.246Z,62.70
2022-08-22T19:23:33.476Z,65.90
2022-08-22T19:26:24.091Z,66.20
2022-08-22T19:28:57.260Z,66.50
2022-08-22T19:31:43.477Z,67.20
2022-08-22T19:34:25.310Z,67.50
2022-08-22T19:37:31.753Z,67.80
2022-08-22T19:40:10.682Z,68.00
2022-08-22T19:42:42.298Z,68.20
2022-08-22T19:45:25.752Z,68.10
2022-08-22T19:47:57.388Z,68.40
2022-08-22T19:50:31.041Z,68.30
2022-08-22T19:53:28.456Z,68.50
2022-08-22T19:56:28.847Z,68.40
2022-08-22T19:59:23.293Z,68.80
2022-08-22T20:02:04.063Z,68.90
2022-08-22T20:04:53.292Z,69.40
2022-08-22T20:07:36.626Z,69.30
2022-08-22T20:10:12.399Z,69.70
2022-08-22T20:13:01.695Z,69.80
2022-08-22T20:15:35.410Z,70.10
2022-08-22T20:18:46.862Z,70.20
2022-08-22T20:21:04.210Z,70.30
2022-08-22T20:23:32.233Z,70.90
2022-08-22T20:26:25.404Z,71.20
2022-08-22T20:28:53.449Z,71.50
2022-08-22T20:31:26.426Z,71.60
2022-08-22T20:34:08.925Z,71.50
2022-08-22T20:36:37.277Z,71.80
2022-08-22T20:39:10.211Z,71.90
2022-08-22T20:41:45.439Z,72.10
2022-08-22T20:44:23.276Z,72.50
2022-08-22T20:46:58.101Z,72.50
2022-08-22T20:49:46.892Z,72.60
2022-08-22T20:52:22.262Z,72.30
2022-08-22T20:55:03.378Z,72.30
2022-08-22T20:57:43.367Z,73.70
2022-08-22T21:00:21.054Z,74.90
2022-08-22T21:02:59.583Z,75.30
2022-08-22T21:05:36.355Z,75.40
2022-08-22T21:08:18.130Z,75.80
2022-08-22T21:11:21.433Z,76.30
2022-08-22T21:13:49.844Z,76.50
2022-08-22T21:16:20.873Z,76.40
2022-08-22T21:18:52.052Z,76.40
2022-08-22T21:21:31.926Z,77.40
2022-08-22T21:24:02.704Z,77.70
2022-08-22T21:26:38.248Z,77.80
2022-08-22T21:29:14.264Z,78.20
2022-08-22T21:31:49.429Z,78.50
2022-08-22T21:34:42.652Z,78.70
2022-08-22T21:37:15.155Z,78.70
2022-08-22T21:39:47.242Z,78.60
2022-08-22T21:42:30.677Z,79.00
2022-08-22T21:45:08.668Z,79.00
2022-08-22T21:47:41.311Z,79.10
2022-08-22T21:50:31.050Z,79.20
2022-08-22T21:53:13.112Z,79.40
2022-08-22T21:55:43.741Z,79.90
2022-08-22T21:58:32.603Z,80.30
2022-08-22T22:01:29.489Z,80.40
2022-08-22T22:04:09.607Z,80.80
2022-08-22T22:06:36.259Z,81.60
2022-08-22T22:09:05.697Z,81.80
2022-08-22T22:11:39.253Z,82.10
2022-08-22T22:14:07.888Z,82.40
2022-08-22T22:16:34.805Z,82.50
2022-08-22T22:19:01.426Z,83.10
2022-08-22T22:21:29.258Z,83.10
2022-08-22T22:26:52.774Z,83.60
2022-08-22T22:35:19.992Z,84.50
2022-08-22T22:37:46.982Z,85.10
2022-08-22T22:40:13.896Z,85.30
2022-08-22T22:42:41.004Z,86.10
2022-08-22T22:45:09.901Z,85.90
2022-08-22T22:47:41.573Z,85.90
2022-08-22T22:50:08.507Z,85.80
2022-08-22T22:53:03.875Z,86.10
2022-08-22T22:55:32.120Z,86.50
2022-08-22T22:57:59.719Z,86.70
2022-08-22T23:00:30.516Z,86.50
2022-08-22T23:06:29.904Z,88.00
2022-08-22T23:08:57.272Z,88.10
2022-08-22T23:11:29.723Z,88.50
2022-08-22T23:14:13.965Z,88.70
2022-08-22T23:16:40.840Z,88.70
2022-08-22T23:19:23.223Z,88.70
2022-08-22T23:21:49.997Z,89.30
2022-08-22T23:24:19.564Z,89.70
2022-08-22T23:26:48.926Z,90.10
2022-08-22T23:29:15.567Z,90.10
2022-08-22T23:31:49.560Z,90.30
2022-08-22T23:34:24.158Z,90.20
2022-08-22T23:36:55.478Z,90.50
2022-08-22T23:39:28.413Z,90.70
2022-08-22T23:41:56.015Z,91.00
2022-08-22T23:44:27.313Z,91.30
2022-08-22T23:46:57.433Z,91.50
2022-08-22T23:49:24.684Z,91.70
2022-08-22T23:51:51.721Z,91.80
2022-08-22T23:54:19.556Z,92.10
2022-08-22T23:56:49.595Z,92.30
2022-08-22T23:59:22.845Z,92.50
